Time;durP1;ratioP1;P1;durP2;ratioP2;P2;SDS_P1;SDS_P2;PMS_P1;PMS_P2;Temp;Humidity;BMP_temperature;BMP_pressure;BME280_temperature;BME280_humidity;BME280_pressure;Samples;Min_cycle;Max_cycle;Signal;HPM_P1;HPM_P2
2021/10/24 00:01:39;;;;;;;12.23;4.85;;;;;;;9.97;62.44;100597.52;1730677;82;21083;-81
2021/10/24 00:04:06;;;;;;;9.30;4.70;;;;;;;9.96;60.51;100593.14;1740874;82;21150;-84
2021/10/24 00:06:33;;;;;;;11.97;5.33;;;;;;;9.94;61.86;100597.58;1735428;82;20999;-81
2021/10/24 00:08:59;;;;;;;13.28;5.53;;;;;;;9.80;58.92;100589.63;1679091;85;21094;-84
2021/10/24 00:11:27;;;;;;;10.18;4.75;;;;;;;9.80;62.28;100592.26;1740421;82;21011;-85
2021/10/24 00:13:55;;;;;;;10.98;5.15;;;;;;;9.84;62.95;100596.97;1745289;79;20919;-84
2021/10/24 00:16:21;;;;;;;10.72;5.10;;;;;;;9.88;62.13;100594.22;1745698;79;21087;-85
2021/10/24 00:18:48;;;;;;;18.30;5.60;;;;;;;9.90;62.57;100605.17;1737553;80;21004;-83
2021/10/24 00:21:14;;;;;;;12.43;5.60;;;;;;;9.88;62.78;100596.84;1730175;82;21077;-82
2021/10/24 00:23:41;;;;;;;9.23;4.30;;;;;;;9.92;62.92;100596.33;1736131;82;21066;-84
2021/10/24 00:26:08;;;;;;;11.55;4.80;;;;;;;9.91;60.28;100595.04;1729721;82;21035;-81
2021/10/24 00:28:34;;;;;;;11.85;5.08;;;;;;;9.85;58.64;100594.77;1729452;82;21178;-82
2021/10/24 00:31:01;;;;;;;9.53;4.83;;;;;;;9.71;59.43;100595.12;1729049;82;21007;-83
2021/10/24 00:33:30;;;;;;;15.25;5.28;;;;;;;9.66;61.96;100598.30;1667402;85;21072;-83
2021/10/24 00:35:56;;;;;;;11.40;5.75;;;;;;;9.67;62.65;100597.42;1734881;82;21600;-83
2021/10/24 00:38:23;;;;;;;11.68;5.37;;;;;;;9.66;61.89;100595.67;1734370;82;21097;-82
2021/10/24 00:40:49;;;;;;;13.78;5.37;;;;;;;9.69;64.17;100594.77;1729197;82;21921;-83
2021/10/24 00:43:16;;;;;;;13.90;5.97;;;;;;;9.80;64.96;100600.16;1732173;82;21093;-82
2021/10/24 00:45:43;;;;;;;12.13;5.58;;;;;;;9.90;65.92;100597.28;1731810;82;21066;-82
2021/10/24 00:48:10;;;;;;;13.15;4.72;;;;;;;9.92;60.92;100596.78;1731908;82;21570;-83
2021/10/24 00:50:37;;;;;;;12.70;5.50;;;;;;;9.89;64.43;100601.65;1731529;82;21120;-82
2021/10/24 00:53:05;;;;;;;12.03;5.10;;;;;;;9.90;63.29;100599.91;1731509;82;21593;-82
2021/10/24 00:55:33;;;;;;;10.50;5.12;;;;;;;9.96;65.44;100603.67;1732376;82;21055;-81
2021/10/24 00:58:00;;;;;;;13.53;4.70;;;;;;;9.97;66.52;100609.36;1731630;82;21522;-82
2021/10/24 01:00:26;;;;;;;10.43;5.22;;;;;;;10.03;65.02;100611.80;1732170;82;21030;-83
2021/10/24 01:02:54;;;;;;;15.15;5.15;;;;;;;9.96;64.84;100611.56;1732350;82;21361;-79
2021/10/24 01:05:20;;;;;;;13.28;5.80;;;;;;;9.90;66.07;100610.42;1730965;82;21116;-79
2021/10/24 01:07:48;;;;;;;11.10;4.80;;;;;;;9.99;67.61;100614.13;1731485;82;21002;-80
2021/10/24 01:10:16;;;;;;;10.40;4.87;;;;;;;10.02;63.71;100612.72;1732111;82;22125;-80
2021/10/24 01:12:47;;;;;;;12.28;5.33;;;;;;;10.01;65.11;100616.27;1731404;82;21011;-79
2021/10/24 01:15:14;;;;;;;10.70;4.53;;;;;;;10.01;64.81;100625.48;1732358;82;21079;-77
2021/10/24 01:17:41;;;;;;;11.43;4.70;;;;;;;10.03;66.21;100628.91;1731836;82;22319;-82
2021/10/24 01:20:10;;;;;;;12.20;4.47;;;;;;;10.00;62.04;100621.10;1732380;82;21003;-81
2021/10/24 01:22:38;;;;;;;9.75;4.33;;;;;;;9.91;60.05;100630.55;1707101;82;21054;-83
2021/10/24 01:25:07;;;;;;;12.82;5.10;;;;;;;9.77;64.13;100634.41;1731819;82;21118;-83
2021/10/24 01:27:36;;;;;;;10.80;4.65;;;;;;;9.73;64.65;100634.09;1731997;82;21122;-82
2021/10/24 01:30:05;;;;;;;10.32;5.65;;;;;;;9.72;64.13;100634.13;1731745;82;21577;-87
2021/10/24 01:32:33;;;;;;;7.30;4.17;;;;;;;9.70;64.27;100632.84;1731948;82;21089;-84
2021/10/24 01:35:00;;;;;;;10.53;4.80;;;;;;;9.70;67.86;100638.55;1732680;82;21660;-81
2021/10/24 01:37:32;;;;;;;9.60;4.92;;;;;;;9.78;66.85;100642.72;1724858;82;21121;-82
2021/10/24 01:40:02;;;;;;;9.83;5.17;;;;;;;9.80;64.87;100640.03;1733826;82;21740;-82
2021/10/24 01:42:29;;;;;;;10.48;4.87;;;;;;;9.80;66.00;100638.72;1730705;82;21085;-81
2021/10/24 01:44:55;;;;;;;10.60;4.87;;;;;;;9.75;64.71;100638.83;1733402;82;20991;-81
2021/10/24 01:47:22;;;;;;;10.58;4.33;;;;;;;9.74;67.56;100642.38;1736984;82;22109;-81
2021/10/24 01:49:49;;;;;;;10.38;5.10;;;;;;;9.70;65.92;100639.88;1675440;85;21069;-80
2021/10/24 01:52:16;;;;;;;12.13;5.10;;;;;;;9.63;65.24;100641.78;1737149;82;21069;-80
2021/10/24 01:54:44;;;;;;;13.93;4.45;;;;;;;9.58;66.22;100641.05;1736010;82;21144;-82
2021/10/24 01:57:11;;;;;;;14.83;4.95;;;;;;;9.47;65.36;100641.75;1735034;82;21769;-81
2021/10/24 01:59:39;;;;;;;11.88;4.50;;;;;;;9.42;69.12;100647.13;1735248;82;21063;-80
2021/10/24 02:02:13;;;;;;;8.80;4.62;;;;;;;9.48;67.79;100646.09;1688587;82;21063;-79
2021/10/24 02:04:58;;;;;;;11.65;4.75;;;;;;;9.46;66.27;100651.41;1738407;82;21062;-79
2021/10/24 02:07:27;;;;;;;8.78;4.50;;;;;;;9.42;67.18;100655.86;1726656;82;21133;-80
2021/10/24 02:09:54;;;;;;;9.65;4.45;;;;;;;9.41;68.94;100652.84;1733013;82;21056;-80
2021/10/24 02:12:22;;;;;;;13.98;4.90;;;;;;;9.45;66.43;100656.23;1734723;82;21023;-81
2021/10/24 02:14:51;;;;;;;8.35;4.60;;;;;;;9.41;67.45;100655.47;1737895;82;21578;-82
2021/10/24 02:17:18;;;;;;;11.03;4.95;;;;;;;9.34;65.22;100655.20;1736868;82;21066;-87
2021/10/24 02:19:47;;;;;;;12.20;5.47;;;;;;;9.33;68.86;100655.23;1675390;85;21158;-86
2021/10/24 02:22:13;;;;;;;8.98;4.17;;;;;;;9.35;68.65;100655.60;1737484;82;21053;-86
2021/10/24 02:24:41;;;;;;;8.85;4.37;;;;;;;9.38;69.05;100666.03;1734104;82;21635;-87
2021/10/24 02:27:08;;;;;;;13.70;5.05;;;;;;;9.40;67.71;100672.58;1718094;82;21086;-88
2021/10/24 02:29:36;;;;;;;8.60;4.45;;;;;;;9.48;69.79;100667.13;1734543;82;21018;-88
2021/10/24 02:32:05;;;;;;;13.00;5.00;;;;;;;9.55;70.42;100671.37;1739951;82;21109;-85
2021/10/24 02:34:48;;;;;;;10.95;4.87;;;;;;;9.57;70.12;100672.17;1735188;82;21059;-83
2021/10/24 02:37:18;;;;;;;7.65;4.40;;;;;;;9.59;67.97;100680.88;1736815;82;21070;-83
2021/10/24 02:39:44;;;;;;;8.75;4.30;;;;;;;9.48;66.70;100682.91;1718673;82;21079;-84
2021/10/24 02:42:11;;;;;;;10.25;4.42;;;;;;;9.40;67.96;100680.47;1718041;81;21060;-83
2021/10/24 02:44:39;;;;;;;9.58;4.03;;;;;;;9.38;69.09;100680.48;1727295;82;21128;-83
2021/10/24 02:47:05;;;;;;;10.18;4.22;;;;;;;9.40;66.67;100685.27;1728340;82;21055;-82
2021/10/24 02:49:34;;;;;;;12.78;4.65;;;;;;;9.36;67.16;100686.27;1721397;82;21106;-82
2021/10/24 02:52:01;;;;;;;8.30;4.37;;;;;;;9.26;65.27;100691.30;1727622;82;21101;-82
2021/10/24 02:54:31;;;;;;;7.50;3.45;;;;;;;9.16;67.67;100689.79;1728667;82;21093;-80
2021/10/24 02:57:00;;;;;;;13.65;5.20;;;;;;;9.14;69.19;100696.84;1722689;82;21133;-80
2021/10/24 02:59:26;;;;;;;10.48;4.60;;;;;;;9.17;71.68;100696.76;1723526;82;21072;-81
2021/10/24 03:01:52;;;;;;;11.65;4.35;;;;;;;9.25;68.17;100694.84;1718617;82;21680;-79
2021/10/24 03:04:18;;;;;;;12.07;4.53;;;;;;;9.27;68.74;100697.41;1728862;82;21065;-84
2021/10/24 03:06:48;;;;;;;10.48;4.50;;;;;;;9.26;69.00;100701.81;1726249;82;21715;-82
2021/10/24 03:09:15;;;;;;;10.00;5.08;;;;;;;9.30;71.09;100695.59;1717501;82;21131;-85
2021/10/24 03:11:42;;;;;;;11.05;5.72;;;;;;;9.37;71.40;100701.13;1722338;82;21084;-80
2021/10/24 03:14:10;;;;;;;8.85;4.58;;;;;;;9.46;72.30;100702.67;1728717;82;21081;-80
2021/10/24 03:16:37;;;;;;;9.90;3.85;;;;;;;9.55;71.64;100705.09;1712567;82;21102;-80
2021/10/24 03:19:04;;;;;;;11.25;4.90;;;;;;;9.61;70.65;100699.66;1723877;82;21610;-81
2021/10/24 03:21:33;;;;;;;14.05;4.67;;;;;;;9.58;70.09;100702.84;1724037;82;21119;-81
2021/10/24 03:24:04;;;;;;;12.20;4.58;;;;;;;9.50;69.02;100705.66;1727714;82;21133;-79
2021/10/24 03:26:34;;;;;;;11.70;5.00;;;;;;;9.40;67.20;100689.66;1720151;82;21051;-80
2021/10/24 03:29:01;;;;;;;9.03;4.53;;;;;;;9.37;67.50;100700.27;1726683;82;21572;-84
2021/10/24 03:31:28;;;;;;;8.13;4.30;;;;;;;9.30;68.74;100701.30;1717559;82;21053;-86
2021/10/24 03:33:54;;;;;;;9.05;4.70;;;;;;;9.33;70.43;100702.08;1719069;82;21137;-85
2021/10/24 03:36:22;;;;;;;8.78;4.60;;;;;;;9.38;67.94;100700.20;1721894;82;20986;-89
2021/10/24 03:38:49;;;;;;;11.35;4.45;;;;;;;9.41;69.31;100708.05;1722333;82;21076;-88
2021/10/24 03:41:16;;;;;;;10.65;4.50;;;;;;;9.37;69.97;100709.01;1717308;82;21500;-73
2021/10/24 03:43:43;;;;;;;9.95;4.80;;;;;;;9.42;68.95;100715.02;1723758;82;21081;-72
2021/10/24 03:46:09;;;;;;;11.05;5.45;;;;;;;9.43;68.73;100720.70;1719767;82;21112;-73
2021/10/24 03:48:36;;;;;;;10.05;4.12;;;;;;;9.30;67.64;100708.73;1723413;82;21105;-71
2021/10/24 03:51:03;;;;;;;10.85;4.50;;;;;;;9.31;68.15;100715.70;1717232;82;21099;-72
2021/10/24 03:53:29;;;;;;;11.60;4.95;;;;;;;9.28;69.16;100715.78;1726621;82;21612;-73
2021/10/24 03:55:57;;;;;;;15.40;4.58;;;;;;;9.24;68.65;100716.74;1725281;82;21072;-70
2021/10/24 03:58:23;;;;;;;9.80;4.45;;;;;;;9.25;68.41;100721.13;1695158;82;21592;-71
2021/10/24 04:00:50;;;;;;;11.75;5.28;;;;;;;9.26;67.83;100722.84;1691194;82;21050;-71
2021/10/24 04:03:16;;;;;;;12.23;5.42;;;;;;;9.20;67.16;100721.22;1712580;82;21123;-73
2021/10/24 04:05:49;;;;;;;8.88;4.17;;;;;;;9.14;69.03;100717.86;1734565;82;21143;-71
2021/10/24 04:08:16;;;;;;;12.53;4.75;;;;;;;9.14;69.76;100721.34;1722222;82;21092;-72
2021/10/24 04:10:45;;;;;;;13.48;5.37;;;;;;;9.18;69.31;100724.33;1703736;82;21203;-71
2021/10/24 04:13:12;;;;;;;10.50;5.25;;;;;;;9.19;68.56;100723.88;1720989;82;21133;-72
2021/10/24 04:15:39;;;;;;;15.88;5.97;;;;;;;9.17;70.61;100726.98;1725253;82;21596;-73
2021/10/24 04:18:09;;;;;;;10.03;5.00;;;;;;;9.19;68.82;100721.24;1712063;82;21573;-73
2021/10/24 04:20:37;;;;;;;11.63;4.95;;;;;;;9.19;69.67;100727.36;1722431;82;21546;-73
2021/10/24 04:23:04;;;;;;;11.50;4.78;;;;;;;9.26;70.82;100729.41;1734984;82;21084;-72
2021/10/24 04:25:31;;;;;;;11.73;5.05;;;;;;;9.29;67.12;100729.33;1701443;82;21045;-72
2021/10/24 04:27:58;;;;;;;11.22;4.87;;;;;;;9.20;66.44;100736.09;1717329;82;21538;-73
2021/10/24 04:30:24;;;;;;;8.33;4.80;;;;;;;9.07;68.37;100733.34;1717469;82;21079;-75
2021/10/24 04:32:53;;;;;;;14.83;5.50;;;;;;;8.99;67.96;100734.34;1733327;82;21757;-74
2021/10/24 04:35:20;;;;;;;10.70;5.08;;;;;;;8.91;68.85;100732.34;1712131;82;21098;-75
2021/10/24 04:37:46;;;;;;;10.70;5.67;;;;;;;8.93;69.88;100742.37;1724908;82;21131;-74
2021/10/24 04:40:13;;;;;;;10.13;4.08;;;;;;;8.94;68.98;100741.91;1720027;81;21007;-75
2021/10/24 04:42:43;;;;;;;11.73;4.75;;;;;;;8.91;70.32;100747.24;1729586;82;21006;-76
2021/10/24 04:45:10;;;;;;;15.03;5.90;;;;;;;8.93;69.04;100748.08;1719601;82;21121;-75
2021/10/24 04:47:37;;;;;;;14.63;5.65;;;;;;;8.93;69.09;100745.45;1636362;85;21145;-74
2021/10/24 04:50:06;;;;;;;11.57;5.37;;;;;;;8.93;69.15;100756.81;1714288;82;21165;-76
2021/10/24 04:52:35;;;;;;;12.37;5.20;;;;;;;8.90;68.59;100754.23;1720460;82;21089;-75
2021/10/24 04:55:05;;;;;;;12.07;5.47;;;;;;;8.88;68.96;100757.79;1683077;82;21093;-76
2021/10/24 04:57:33;;;;;;;13.13;5.58;;;;;;;8.92;70.74;100755.06;1726978;82;21609;-75
2021/10/24 05:00:05;;;;;;;12.20;5.30;;;;;;;8.88;64.96;100771.81;1718182;82;21097;-75
2021/10/24 05:02:34;;;;;;;11.05;5.47;;;;;;;8.62;65.25;100773.60;1699955;82;21073;-74
2021/10/24 05:05:04;;;;;;;10.98;5.20;;;;;;;8.35;65.62;100769.27;1721907;82;21117;-76
2021/10/24 05:07:31;;;;;;;12.37;6.12;;;;;;;8.15;66.75;100777.47;1723955;82;21077;-77
2021/10/24 05:09:57;;;;;;;14.63;6.10;;;;;;;7.99;67.48;100785.16;1720811;82;21053;-75
2021/10/24 05:12:24;;;;;;;13.30;5.42;;;;;;;7.92;70.67;100784.84;1720527;82;21558;-77
2021/10/24 05:14:53;;;;;;;14.23;5.30;;;;;;;7.94;69.74;100787.00;1721255;82;21521;-75
2021/10/24 05:17:22;;;;;;;11.40;4.65;;;;;;;8.07;73.04;100792.91;1716938;82;21649;-75
2021/10/24 05:19:48;;;;;;;12.90;5.00;;;;;;;8.27;72.32;100792.13;1724650;82;21651;-76
2021/10/24 05:22:16;;;;;;;10.30;4.20;;;;;;;8.47;72.17;100798.39;1724718;82;21086;-77
2021/10/24 05:24:47;;;;;;;14.43;5.67;;;;;;;8.65;72.58;100805.50;1730863;82;21164;-75
2021/10/24 05:27:13;;;;;;;12.07;5.62;;;;;;;8.80;70.60;100814.42;1719354;82;21156;-75
2021/10/24 05:29:41;;;;;;;9.00;4.67;;;;;;;8.68;70.38;100792.33;1715134;82;21014;-75
2021/10/24 05:32:08;;;;;;;12.00;5.20;;;;;;;8.73;69.06;100819.38;1725130;82;21125;-75
2021/10/24 05:34:35;;;;;;;10.78;4.40;;;;;;;8.65;69.45;100818.62;1721773;82;21093;-76
2021/10/24 05:37:10;;;;;;;8.50;4.33;;;;;;;8.63;70.44;100825.66;1726471;82;21129;-75
2021/10/24 05:39:37;;;;;;;9.35;4.22;;;;;;;8.55;70.30;100830.61;1718633;82;21069;-75
2021/10/24 05:42:05;;;;;;;11.68;3.80;;;;;;;8.55;70.82;100837.63;1733443;82;21055;-76
2021/10/24 05:44:32;;;;;;;8.73;4.03;;;;;;;8.54;72.65;100836.77;1677011;85;21087;-75
2021/10/24 05:46:59;;;;;;;9.00;4.47;;;;;;;8.63;71.62;100844.05;1677382;85;21437;-75
2021/10/24 05:49:28;;;;;;;9.40;4.80;;;;;;;8.72;72.44;100846.50;1677365;85;21147;-74
2021/10/24 05:51:54;;;;;;;9.65;4.83;;;;;;;8.87;71.67;100846.23;1732083;82;21111;-76
2021/10/24 05:55:39;;;;;;;12.07;6.05;;;;;;;9.06;70.84;100849.83;1811365;79;28033;-76
2021/10/24 05:58:06;;;;;;;12.03;6.60;;;;;;;9.02;70.99;100855.16;1766167;80;21065;-75
2021/10/24 06:00:34;;;;;;;11.03;5.45;;;;;;;8.97;69.89;100850.44;1759022;80;21141;-76
2021/10/24 06:03:05;;;;;;;12.03;5.67;;;;;;;9.05;71.88;100855.54;1712864;80;21154;-75
2021/10/24 06:05:40;;;;;;;11.10;6.28;;;;;;;9.19;70.60;100856.59;1756659;80;21073;-76
2021/10/24 06:08:10;;;;;;;12.50;6.70;;;;;;;9.20;70.74;100866.19;1762997;80;21081;-75
2021/10/24 06:10:40;;;;;;;14.00;5.62;;;;;;;9.23;70.45;100866.15;1783252;80;21064;-75
2021/10/24 06:13:06;;;;;;;12.73;6.95;;;;;;;9.28;71.81;100872.17;1773746;80;21096;-76
2021/10/24 06:15:37;;;;;;;14.35;7.00;;;;;;;9.42;71.34;100870.58;1748009;80;20992;-76
2021/10/24 06:18:02;;;;;;;13.08;5.53;;;;;;;9.44;67.87;100877.99;1769893;80;21008;-77
2021/10/24 06:20:30;;;;;;;7.30;4.37;;;;;;;9.24;68.68;100887.58;1774621;80;21073;-75
2021/10/24 06:22:57;;;;;;;6.72;3.40;;;;;;;9.14;71.29;100883.41;1771467;80;21021;-76
2021/10/24 06:25:24;;;;;;;8.45;3.27;;;;;;;9.08;69.62;100888.77;1769512;80;22228;-77
2021/10/24 06:27:52;;;;;;;5.80;2.40;;;;;;;9.09;70.23;100887.86;1714207;83;21069;-75
2021/10/24 06:30:22;;;;;;;4.92;2.75;;;;;;;9.11;69.99;100897.89;1727174;82;21077;-75
2021/10/24 06:33:07;;;;;;;5.95;3.02;;;;;;;9.09;68.68;100887.86;1711619;83;21074;-76
2021/10/24 06:35:54;;;;;;;6.20;3.40;;;;;;;8.95;67.83;100898.20;1628473;86;21594;-76
2021/10/24 06:38:33;;;;;;;6.00;2.90;;;;;;;8.87;70.19;100906.65;1702783;84;21915;-76
2021/10/24 06:41:04;;;;;;;7.00;3.25;;;;;;;8.92;70.22;100907.88;1734066;80;21101;-77
2021/10/24 06:43:33;;;;;;;9.28;3.40;;;;;;;8.94;70.02;100901.70;1772330;79;21598;-75
2021/10/24 06:46:10;;;;;;;6.87;3.08;;;;;;;8.98;71.53;100906.02;1753075;80;21071;-75
2021/10/24 06:48:46;;;;;;;5.90;3.05;;;;;;;9.19;70.79;100915.72;1766393;80;21089;-76
2021/10/24 06:51:20;;;;;;;7.03;3.47;;;;;;;9.22;70.27;100916.96;1710938;83;21502;-76
2021/10/24 06:54:05;;;;;;;7.72;3.30;;;;;;;9.21;71.46;100909.98;1693092;83;21064;-76
2021/10/24 06:56:49;;;;;;;6.05;3.17;;;;;;;9.35;73.49;100922.41;1757128;81;21050;-75
2021/10/24 06:59:39;;;;;;;7.65;3.72;;;;;;;9.58;71.56;100924.59;1744934;81;21568;-76
2021/10/24 07:02:22;;;;;;;10.75;3.85;;;;;;;9.75;71.63;100926.86;1742944;81;21009;-77
2021/10/24 07:05:07;;;;;;;5.80;3.47;;;;;;;9.80;68.76;100929.39;1753496;81;21150;-76
2021/10/24 07:07:36;;;;;;;6.87;3.80;;;;;;;9.65;69.40;100931.91;1748479;81;21120;-76
2021/10/24 07:10:06;;;;;;;7.00;3.50;;;;;;;9.59;69.84;100928.96;1745629;81;21108;-76
2021/10/24 07:12:34;;;;;;;7.60;3.35;;;;;;;9.57;68.62;100933.81;1749053;81;21068;-76
2021/10/24 07:15:04;;;;;;;5.22;2.72;;;;;;;9.59;69.24;100935.96;1750346;81;21104;-76
2021/10/24 07:17:31;;;;;;;7.03;3.05;;;;;;;9.68;68.23;100933.14;1741676;81;21123;-77
2021/10/24 07:19:57;;;;;;;7.12;2.60;;;;;;;9.81;65.66;100939.03;1747464;81;21641;-76
2021/10/24 07:22:25;;;;;;;5.30;2.60;;;;;;;9.78;67.05;100935.16;1757337;81;21108;-77
2021/10/24 07:25:03;;;;;;;4.58;2.10;;;;;;;9.70;65.76;100935.30;1755395;81;21639;-75
2021/10/24 07:27:33;;;;;;;4.25;2.17;;;;;;;9.72;63.68;100955.86;1760482;80;21040;-76
2021/10/24 07:30:00;;;;;;;3.55;2.20;;;;;;;9.60;68.19;100954.34;1759062;80;21887;-76
2021/10/24 07:32:27;;;;;;;5.35;1.98;;;;;;;9.64;68.02;100960.43;1671725;84;21093;-76
2021/10/24 07:34:58;;;;;;;3.30;1.40;;;;;;;9.50;66.74;100969.91;1679332;84;21118;-76
2021/10/24 07:37:24;;;;;;;2.00;1.40;;;;;;;9.30;68.06;100971.58;1685870;84;21081;-76
2021/10/24 07:39:52;;;;;;;3.10;1.30;;;;;;;9.09;70.92;100975.89;1690683;84;21045;-76
2021/10/24 07:42:18;;;;;;;1.80;1.00;;;;;;;9.08;71.57;100975.48;1711270;82;21479;-78
2021/10/24 07:44:45;;;;;;;1.32;0.90;;;;;;;8.99;70.81;100974.73;1685544;84;21043;-75
2021/10/24 07:47:13;;;;;;;1.45;0.90;;;;;;;8.95;72.67;100972.18;1748888;81;21020;-76
2021/10/24 07:49:40;;;;;;;1.50;0.90;;;;;;;9.05;72.21;100976.41;1751421;81;21052;-75
2021/10/24 07:52:08;;;;;;;1.92;1.22;;;;;;;9.13;73.22;100982.83;1742933;80;21106;-76
2021/10/24 07:54:34;;;;;;;2.08;1.05;;;;;;;9.05;74.45;100962.41;1744484;80;21491;-75
2021/10/24 07:57:01;;;;;;;4.85;1.37;;;;;;;9.31;75.13;100991.70;1755861;81;21300;-76
2021/10/24 07:59:30;;;;;;;3.35;1.22;;;;;;;9.41;74.91;100980.14;1749788;80;21081;-77
2021/10/24 08:01:59;;;;;;;1.92;1.27;;;;;;;9.57;73.71;100985.09;1749758;81;21077;-75
2021/10/24 08:04:26;;;;;;;4.30;1.60;;;;;;;9.57;71.72;100985.09;1725060;81;21060;-76
2021/10/24 08:06:53;;;;;;;3.15;1.85;;;;;;;9.56;73.26;100982.05;1745053;81;21119;-77
2021/10/24 08:09:20;;;;;;;4.00;1.98;;;;;;;9.69;74.09;100986.64;1749792;81;21701;-77
2021/10/24 08:11:48;;;;;;;3.08;1.95;;;;;;;9.81;72.79;100979.35;1747654;81;21124;-76
2021/10/24 08:14:14;;;;;;;4.00;2.12;;;;;;;9.85;70.41;100977.54;1757655;81;22158;-76
2021/10/24 08:16:41;;;;;;;5.92;2.20;;;;;;;9.81;72.42;100986.38;1755011;81;21064;-75
2021/10/24 08:19:09;;;;;;;4.20;2.25;;;;;;;9.81;70.77;100989.87;1758138;81;23283;-75
2021/10/24 08:21:39;;;;;;;4.67;2.33;;;;;;;9.73;71.43;100990.92;1692569;84;21108;-75
2021/10/24 08:24:05;;;;;;;5.37;2.55;;;;;;;9.75;72.00;100997.02;1678147;83;21597;-75
2021/10/24 08:26:35;;;;;;;3.37;2.10;;;;;;;9.75;72.39;100992.62;1688364;84;21074;-73
2021/10/24 08:29:02;;;;;;;3.40;1.92;;;;;;;9.75;70.19;100999.19;1728769;81;22047;-73
2021/10/24 08:31:50;;;;;;;3.65;2.10;;;;;;;9.80;71.10;100998.68;1740976;81;21170;-73
2021/10/24 08:34:18;;;;;;;5.28;2.22;;;;;;;10.04;70.60;100989.86;1754554;81;21039;-74
2021/10/24 08:36:46;;;;;;;2.62;1.62;;;;;;;10.34;68.11;100983.09;1754511;81;21101;-73
2021/10/24 08:39:13;;;;;;;3.72;1.77;;;;;;;10.60;66.52;100990.38;1764068;81;21053;-73
2021/10/24 08:41:40;;;;;;;1.80;1.10;;;;;;;10.60;65.35;101010.13;1760001;81;21021;-73
2021/10/24 08:44:08;;;;;;;4.85;0.90;;;;;;;10.47;64.14;101029.77;1745186;81;21103;-73
2021/10/24 08:46:34;;;;;;;1.67;1.00;;;;;;;10.20;65.65;101029.43;1749943;81;21142;-73
2021/10/24 08:49:01;;;;;;;1.17;0.80;;;;;;;9.96;66.83;101041.77;1744210;81;21068;-74
2021/10/24 08:51:29;;;;;;;1.65;0.90;;;;;;;9.76;69.36;101049.61;1750200;81;21032;-72
2021/10/24 08:53:57;;;;;;;1.32;0.78;;;;;;;9.54;69.39;101046.50;1754813;80;21041;-74
2021/10/24 08:56:28;;;;;;;1.65;0.85;;;;;;;9.22;70.45;101049.69;1754613;81;21110;-74
2021/10/24 08:58:54;;;;;;;;;;;;;;;8.94;72.87;101052.76;1749228;81;21073;-73
2021/10/24 09:01:21;;;;;;;2.95;1.15;;;;;;;8.89;72.65;101051.97;1753144;81;20172;-74
2021/10/24 09:04:04;;;;;;;1.65;0.80;;;;;;;8.81;73.36;101054.72;1754177;81;21067;-74
2021/10/24 09:06:54;;;;;;;1.67;0.72;;;;;;;8.87;75.64;101052.89;1750843;81;21556;-73
2021/10/24 09:09:25;;;;;;;1.22;1.00;;;;;;;9.16;76.23;101047.19;1741524;81;21590;-73
2021/10/24 09:12:06;;;;;;;;;;;;;;;9.44;76.55;101052.83;1754074;81;20983;-74
2021/10/24 09:14:49;;;;;;;2.30;1.22;;;;;;;9.75;76.11;101055.75;1758151;80;27178;-76
2021/10/24 09:17:30;;;;;;;2.05;1.20;;;;;;;10.05;73.32;101049.47;1754828;81;21579;-75
2021/10/24 09:19:59;;;;;;;6.90;4.67;;;;;;;10.50;70.86;101050.77;1755005;81;21111;-75
2021/10/24 09:22:31;;;;;;;5.47;4.08;;;;;;;11.07;72.31;101046.36;1749142;81;21323;-74
2021/10/24 09:25:06;;;;;;;5.50;2.75;;;;;;;11.91;69.24;101045.95;1744670;81;21086;-75
2021/10/24 09:27:51;;;;;;;3.70;1.22;;;;;;;12.38;66.86;101051.65;1747067;81;21156;-76
2021/10/24 09:30:36;;;;;;;1.47;1.10;;;;;;;12.64;64.60;101044.70;1745843;81;21178;-75
2021/10/24 09:33:11;;;;;;;1.50;1.00;;;;;;;12.62;62.11;101043.87;1743154;81;21112;-75
2021/10/24 09:35:46;;;;;;;2.77;1.92;;;;;;;12.43;62.62;101048.01;1695637;84;22120;-75
2021/10/24 09:38:19;;;;;;;6.08;3.72;;;;;;;12.43;63.87;101041.41;1695285;84;21556;-75
2021/10/24 09:40:59;;;;;;;28.05;16.90;;;;;;;12.41;63.22;101041.91;1676485;84;21487;-75
2021/10/24 09:43:31;;;;;;;7.50;3.58;;;;;;;12.60;61.52;101049.66;1725495;79;21135;-77
2021/10/24 09:46:04;;;;;;;11.85;7.53;;;;;;;12.55;60.86;101044.98;1688846;83;21113;-75
2021/10/24 09:48:33;;;;;;;4.20;2.45;;;;;;;12.66;61.07;101047.31;1686852;84;23315;-76
2021/10/24 09:51:11;;;;;;;5.50;2.92;;;;;;;12.73;59.66;101049.70;1685479;84;21153;-76
2021/10/24 09:53:41;;;;;;;6.62;3.85;;;;;;;12.70;60.38;101045.84;1678986;84;21023;-78
2021/10/24 09:56:10;;;;;;;8.08;4.20;;;;;;;12.74;60.67;101042.17;1678196;84;21060;-77
2021/10/24 09:58:43;;;;;;;4.65;2.67;;;;;;;12.70;61.32;101040.56;1684397;84;21135;-76
2021/10/24 10:01:20;;;;;;;7.12;4.78;;;;;;;12.62;58.89;101041.70;1686389;84;21801;-76
2021/10/24 10:03:48;;;;;;;6.87;4.70;;;;;;;12.21;58.68;101039.38;1684802;84;21061;-73
2021/10/24 10:06:19;;;;;;;4.85;2.33;;;;;;;11.91;59.38;101034.06;1685430;84;21347;-73
2021/10/24 10:08:46;;;;;;;6.28;2.20;;;;;;;11.85;62.08;101034.23;1685954;84;21527;-74
2021/10/24 10:11:39;;;;;;;2.77;1.77;;;;;;;11.98;61.98;101031.27;1688750;83;21114;-74
2021/10/24 10:14:11;;;;;;;4.35;1.92;;;;;;;12.05;61.80;101032.81;1679480;84;21136;-74
2021/10/24 10:16:40;;;;;;;3.45;2.00;;;;;;;12.24;61.71;101031.39;1688068;84;21085;-75
2021/10/24 10:19:13;;;;;;;3.80;2.10;;;;;;;12.12;59.28;101034.37;1687160;84;21625;-75
2021/10/24 10:21:44;;;;;;;5.40;2.72;;;;;;;11.95;59.64;101035.72;1685049;84;21636;-73
2021/10/24 10:24:38;;;;;;;5.20;2.45;;;;;;;11.85;61.37;101043.47;1684116;84;21185;-74
2021/10/24 10:27:38;;;;;;;2.33;1.52;;;;;;;11.62;62.70;101052.01;1676265;84;21078;-75
2021/10/24 10:30:17;;;;;;;5.55;3.22;;;;;;;11.32;61.52;101052.36;1681515;84;21036;-72
2021/10/24 10:32:49;;;;;;;1.65;1.20;;;;;;;11.11;61.23;101051.98;1683578;84;21011;-73
2021/10/24 10:35:19;;;;;;;3.25;1.60;;;;;;;10.92;60.70;101052.86;1692480;84;21541;-71
2021/10/24 10:37:56;;;;;;;4.60;1.60;;;;;;;10.74;61.03;101052.42;1694253;84;21044;-72
2021/10/24 10:40:30;;;;;;;14.60;6.72;;;;;;;10.60;59.28;101057.55;1693297;83;21754;-73
2021/10/24 10:43:03;;;;;;;12.88;4.65;;;;;;;10.66;63.09;101054.78;1694778;84;21588;-71
2021/10/24 10:45:42;;;;;;;7.80;3.52;;;;;;;10.90;62.49;101060.39;1646991;85;21105;-76
2021/10/24 10:48:29;;;;;;;7.45;4.20;;;;;;;11.21;62.76;101051.76;1653554;86;21060;-74
2021/10/24 10:51:26;;;;;;;5.90;3.17;;;;;;;11.50;63.97;101065.07;1643998;86;21080;-73
2021/10/24 10:54:02;;;;;;;10.30;5.20;;;;;;;11.49;57.86;101054.55;1621904;87;21567;-74
2021/10/24 10:56:43;;;;;;;13.70;5.87;;;;;;;11.28;59.06;101065.20;1646347;86;21561;-74
2021/10/24 10:59:36;;;;;;;14.55;8.28;;;;;;;11.18;59.03;101065.89;1626231;87;21069;-74
2021/10/24 11:02:29;;;;;;;8.33;4.50;;;;;;;11.03;56.62;101072.38;1640302;86;21356;-75
2021/10/24 11:05:00;;;;;;;6.87;3.35;;;;;;;10.84;56.15;101071.09;1638358;86;21140;-75
2021/10/24 11:07:46;;;;;;;3.85;2.20;;;;;;;10.66;58.89;101075.86;1645800;86;21174;-74
2021/10/24 11:10:36;;;;;;;6.65;2.75;;;;;;;10.66;59.31;101081.13;1645780;86;21549;-82
2021/10/24 11:13:06;;;;;;;4.92;3.20;;;;;;;10.67;59.03;101081.56;1688583;84;21117;-85
2021/10/24 11:15:34;;;;;;;4.05;1.85;;;;;;;10.66;57.79;101087.72;1682441;84;21163;-83
2021/10/24 11:18:06;;;;;;;16.73;9.33;;;;;;;10.61;56.70;101088.28;1687604;84;21152;-84
2021/10/24 11:20:40;;;;;;;4.97;2.33;;;;;;;10.52;55.24;101102.95;1638835;86;25766;-81
2021/10/24 11:23:13;;;;;;;2.22;1.20;;;;;;;10.28;57.85;101104.28;1646493;86;21054;-78
2021/10/24 11:25:40;;;;;;;3.37;1.67;;;;;;;10.24;60.80;101111.40;1655783;86;21064;-81
2021/10/24 11:28:14;;;;;;;2.10;1.30;;;;;;;10.04;54.78;101129.34;1620782;87;21082;-79
2021/10/24 11:30:43;;;;;;;2.62;1.60;;;;;;;9.58;59.55;101127.08;1637552;86;21087;-80
2021/10/24 11:33:10;;;;;;;3.52;1.80;;;;;;;9.22;60.53;101140.36;1643520;86;21813;-80
2021/10/24 11:35:39;;;;;;;6.08;4.50;;;;;;;9.03;64.31;101124.02;1648100;86;21125;-80
2021/10/24 11:38:11;;;;;;;2.75;1.42;;;;;;;9.03;66.85;101121.38;1648115;86;21143;-79
2021/10/24 11:40:43;;;;;;;4.50;3.12;;;;;;;9.04;66.77;101123.11;1646249;86;21149;-80
2021/10/24 11:43:20;;;;;;;1.95;1.60;;;;;;;8.97;66.39;101125.41;1683939;84;21026;-81
2021/10/24 11:45:54;;;;;;;2.45;1.02;;;;;;;8.92;67.01;101132.03;1681241;84;21149;-82